Observation data for Wolfforth on 08/14/2020      Previous  Date  Next       Current Mesonet Observations  Soil Data  Daily Summary Page  Observations in Plain Language
KWOS 140500Z 20008KT 28/09 A30 RMK A01 T02780091  RH  032%=      5-min Rain = 0
KWOS 140505Z 20007KT 27/09 A30 RMK A01 T02740092  RH  033%=      5-min Rain = 0
KWOS 140510Z 20007KT 27/09 A30 RMK A01 T02690093  RH  034%=      5-min Rain = 0
KWOS 140515Z 21007KT 26/09 A30 RMK A01 T02610094  RH  036%=      5-min Rain = 0
KWOS 140520Z 21006KT 26/09 A30 RMK A01 T02550093  RH  037%=      5-min Rain = 0
KWOS 140525Z 20007KT 25/09 A30 RMK A01 T02530093  RH  037%=      5-min Rain = 0
KWOS 140530Z 21007KT 25/09 A30 RMK A01 T02530094  RH  038%=      5-min Rain = 0
KWOS 140535Z 21006KT 25/09 A30 RMK A01 T02510093  RH  038%=      5-min Rain = 0
KWOS 140540Z 21007KT 25/09 A30 RMK A01 T02490093  RH  038%=      5-min Rain = 0
KWOS 140545Z 22007KT 25/09 A30 RMK A01 T02470094  RH  039%=      5-min Rain = 0
KWOS 140550Z 23007KT 25/09 A30 RMK A01 T02460094  RH  039%=      5-min Rain = 0
KWOS 140555Z 23006KT 24/09 A30 RMK A01 T02430093  RH  040%=      5-min Rain = 0
KWOS 140600Z 23007KT 24/09 A30 RMK A01 T02430093  RH  040%=      5-min Rain = 0
KWOS 140605Z 23006KT 24/09 A30 RMK A01 T02440092  RH  039%=      5-min Rain = 0
KWOS 140610Z 23005KT 24/09 A30 RMK A01 T02440092  RH  039%=      5-min Rain = 0
KWOS 140615Z 23005KT 24/09 A3001 RMK A01 T02430093  RH  040%=      5-min Rain = 0
KWOS 140620Z 23006KT 24/09 A3001 RMK A01 T02410094  RH  041%=      5-min Rain = 0
KWOS 140625Z 22006KT 24/10 A30 RMK A01 T02410095  RH  041%=      5-min Rain = 0
KWOS 140630Z 23007KT 24/10 A30 RMK A01 T02400097  RH  042%=      5-min Rain = 0
KWOS 140635Z 23007KT 23/10 A30 RMK A01 T02340097  RH  043%=      5-min Rain = 0
KWOS 140640Z 22007KT 23/10 A3001 RMK A01 T02310097  RH  044%=      5-min Rain = 0
KWOS 140645Z 22008KT 23/10 A3001 RMK A01 T02310097  RH  044%=      5-min Rain = 0
KWOS 140650Z 22008KT 23/10 A3001 RMK A01 T02300097  RH  044%=      5-min Rain = 0
KWOS 140655Z 22008KT 23/10 A3001 RMK A01 T02300098  RH  045%=      5-min Rain = 0
KWOS 140700Z 22008KT 23/10 A3001 RMK A01 T02300099  RH  045%=      5-min Rain = 0
KWOS 140705Z 23008KT 23/10 A3001 RMK A01 T02300097  RH  044%=      5-min Rain = 0
KWOS 140710Z 23008KT 24/10 A3001 RMK A01 T02350097  RH  043%=      5-min Rain = 0
KWOS 140715Z 23007KT 24/10 A3001 RMK A01 T02410097  RH  041%=      5-min Rain = 0
KWOS 140720Z 22008KT 24/10 A30 RMK A01 T02400097  RH  041%=      5-min Rain = 0
KWOS 140725Z 20006KT 24/10 A3001 RMK A01 T02380099  RH  043%=      5-min Rain = 0
KWOS 140730Z 21007KT 24/10 A3001 RMK A01 T02360099  RH  043%=      5-min Rain = 0
KWOS 140735Z 22007KT 23/10 A3001 RMK A01 T02320098  RH  044%=      5-min Rain = 0
KWOS 140740Z 22007KT 23/10 A30 RMK A01 T02300098  RH  044%=      5-min Rain = 0
KWOS 140745Z 22008KT 23/10 A3001 RMK A01 T02300099  RH  045%=      5-min Rain = 0
KWOS 140750Z 22007KT 23/10 A3001 RMK A01 T02340100  RH  044%=      5-min Rain = 0
KWOS 140755Z 22007KT 24/10 A3001 RMK A01 T02420101  RH  042%=      5-min Rain = 0
KWOS 140800Z 22006KT 25/10 A3001 RMK A01 T02450102  RH  042%=      5-min Rain = 0
KWOS 140805Z 22006KT 25/10 A3001 RMK A01 T02460103  RH  042%=      5-min Rain = 0
KWOS 140810Z 22006KT 24/10 A3001 RMK A01 T02440102  RH  042%=      5-min Rain = 0
KWOS 140815Z 22008KT 25/10 A3001 RMK A01 T02490102  RH  041%=      5-min Rain = 0
KWOS 140820Z 22009KT 26/10 A3001 RMK A01 T02550102  RH  039%=      5-min Rain = 0
KWOS 140825Z 22009KT 26/10 A3001 RMK A01 T02600102  RH  038%=      5-min Rain = 0
KWOS 140830Z 22008KT 26/10 A3001 RMK A01 T02590102  RH  038%=      5-min Rain = 0
KWOS 140835Z 22008KT 26/10 A3001 RMK A01 T02610103  RH  038%=      5-min Rain = 0
KWOS 140840Z 22008KT 26/10 A3001 RMK A01 T02610103  RH  038%=      5-min Rain = 0
KWOS 140845Z 22007KT 26/10 A3001 RMK A01 T02590103  RH  039%=      5-min Rain = 0
KWOS 140850Z 22007KT 26/10 A3001 RMK A01 T02580103  RH  039%=      5-min Rain = 0
KWOS 140855Z 22006KT 26/10 A3001 RMK A01 T02570103  RH  039%=      5-min Rain = 0
KWOS 140900Z 22005KT 25/10 A3001 RMK A01 T02540103  RH  040%=      5-min Rain = 0
KWOS 140905Z 23006KT 25/10 A3001 RMK A01 T02530103  RH  040%=      5-min Rain = 0
KWOS 140910Z 24007KT 25/10 A3001 RMK A01 T02510103  RH  040%=      5-min Rain = 0
KWOS 140915Z 24007KT 25/10 A3001 RMK A01 T02510102  RH  040%=      5-min Rain = 0
KWOS 140920Z 23006KT 25/10 A3001 RMK A01 T02490103  RH  041%=      5-min Rain = 0
KWOS 140925Z 24006KT 25/10 A3001 RMK A01 T02480103  RH  041%=      5-min Rain = 0
KWOS 140930Z 24007KT 25/10 A3001 RMK A01 T02480103  RH  041%=      5-min Rain = 0
KWOS 140935Z 24007KT 25/11 A3001 RMK A01 T02530105  RH  041%=      5-min Rain = 0
KWOS 140940Z 24007KT 25/11 A3001 RMK A01 T02540105  RH  041%=      5-min Rain = 0
KWOS 140945Z 24007KT 25/11 A3001 RMK A01 T02530106  RH  041%=      5-min Rain = 0
KWOS 140950Z 24006KT 25/11 A3001 RMK A01 T02510106  RH  041%=      5-min Rain = 0
KWOS 140955Z 24006KT 25/11 A3001 RMK A01 T02490107  RH  042%=      5-min Rain = 0
KWOS 141000Z 24007KT 25/11 A3001 RMK A01 T02480108  RH  043%=      5-min Rain = 0
KWOS 141005Z 24006KT 25/11 A3001 RMK A01 T02480109  RH  043%=      5-min Rain = 0
KWOS 141010Z 24007KT 25/11 A3001 RMK A01 T02480109  RH  043%=      5-min Rain = 0
KWOS 141015Z 24007KT 25/11 A3001 RMK A01 T02480110  RH  043%=      5-min Rain = 0
KWOS 141020Z 24007KT 25/11 A3001 RMK A01 T02480110  RH  044%=      5-min Rain = 0
KWOS 141025Z 24007KT 25/11 A3001 RMK A01 T02470111  RH  044%=      5-min Rain = 0
KWOS 141030Z 23006KT 25/11 A3001 RMK A01 T02480111  RH  044%=      5-min Rain = 0
KWOS 141035Z 23006KT 25/11 A3001 RMK A01 T02460111  RH  044%=      5-min Rain = 0
KWOS 141040Z 23005KT 24/11 A3002 RMK A01 T02440112  RH  045%=      5-min Rain = 0
KWOS 141045Z 23005KT 24/11 A3002 RMK A01 T02420112  RH  046%=      5-min Rain = 0
KWOS 141050Z 23006KT 24/11 A3002 RMK A01 T02400113  RH  046%=      5-min Rain = 0
KWOS 141055Z 23005KT 24/11 A3002 RMK A01 T02400113  RH  047%=      5-min Rain = 0
KWOS 141100Z 24006KT 24/11 A3002 RMK A01 T02380113  RH  047%=      5-min Rain = 0
KWOS 141105Z 24006KT 24/11 A3002 RMK A01 T02390113  RH  047%=      5-min Rain = 0
KWOS 141110Z 23005KT 24/11 A3002 RMK A01 T02370113  RH  047%=      5-min Rain = 0
KWOS 141115Z 23005KT 23/11 A3002 RMK A01 T02330113  RH  048%=      5-min Rain = 0
KWOS 141120Z 21005KT 23/11 A3002 RMK A01 T02300112  RH  049%=      5-min Rain = 0
KWOS 141125Z 22005KT 23/11 A3002 RMK A01 T02290113  RH  050%=      5-min Rain = 0
KWOS 141130Z 22005KT 23/12 A3002 RMK A01 T02280115  RH  050%=      5-min Rain = 0
KWOS 141135Z 20005KT 23/11 A3002 RMK A01 T02270114  RH  051%=      5-min Rain = 0
KWOS 141140Z 18004KT 23/11 A3002 RMK A01 T02250114  RH  051%=      5-min Rain = 0
KWOS 141145Z 19005KT 22/12 A3003 RMK A01 T02230115  RH  052%=      5-min Rain = 0
KWOS 141150Z 20006KT 22/12 A3003 RMK A01 T02230115  RH  052%=      5-min Rain = 0
KWOS 141155Z 20006KT 23/12 A3003 RMK A01 T02290115  RH  051%=      5-min Rain = 0
KWOS 141200Z 21006KT 23/12 A3003 RMK A01 T02290115  RH  050%=      5-min Rain = 0
KWOS 141205Z 21005KT 22/12 A3003 RMK A01 T02210116  RH  053%=      5-min Rain = 0
KWOS 141210Z 21005KT 22/12 A3003 RMK A01 T02160118  RH  056%=      5-min Rain = 0
KWOS 141215Z 21005KT 21/12 A3003 RMK A01 T02130119  RH  057%=      5-min Rain = 0
KWOS 141220Z 22006KT 21/12 A3003 RMK A01 T02110117  RH  057%=      5-min Rain = 0
KWOS 141225Z 22007KT 21/12 A3003 RMK A01 T02130118  RH  057%=      5-min Rain = 0
KWOS 141230Z 22007KT 22/12 A3003 RMK A01 T02150118  RH  056%=      5-min Rain = 0
KWOS 141235Z 22006KT 22/12 A3003 RMK A01 T02170118  RH  056%=      5-min Rain = 0
KWOS 141240Z 21006KT 22/12 A3003 RMK A01 T02170120  RH  056%=      5-min Rain = 0
KWOS 141245Z 22005KT 22/12 A3003 RMK A01 T02170121  RH  056%=      5-min Rain = 0
KWOS 141250Z 21006KT 22/12 A3003 RMK A01 T02170123  RH  057%=      5-min Rain = 0
KWOS 141255Z 20006KT 22/12 A3003 RMK A01 T02180124  RH  057%=      5-min Rain = 0
KWOS 141300Z 21006KT 22/13 A3003 RMK A01 T02220125  RH  056%=      5-min Rain = 0
KWOS 141305Z 21006KT 23/13 A3003 RMK A01 T02270128  RH  056%=      5-min Rain = 0
KWOS 141310Z 21005KT 23/13 A3004 RMK A01 T02290130  RH  056%=      5-min Rain = 0
KWOS 141315Z 21005KT 23/13 A3003 RMK A01 T02330131  RH  055%=      5-min Rain = 0
KWOS 141320Z 22005KT 24/13 A3004 RMK A01 T02370132  RH  054%=      5-min Rain = 0
KWOS 141325Z 22005KT 24/13 A3004 RMK A01 T02400131  RH  053%=      5-min Rain = 0
KWOS 141330Z 22005KT 24/13 A3004 RMK A01 T02430133  RH  052%=      5-min Rain = 0
KWOS 141335Z 21006KT 25/13 A3004 RMK A01 T02460134  RH  052%=      5-min Rain = 0
KWOS 141340Z 22005KT 25/14 A3004 RMK A01 T02500135  RH  051%=      5-min Rain = 0
KWOS 141345Z 22005KT 25/14 A3004 RMK A01 T02530137  RH  051%=      5-min Rain = 0
KWOS 141350Z 20007KT 26/13 A3004 RMK A01 T02550134  RH  049%=      5-min Rain = 0
KWOS 141355Z 20007KT 26/14 A3004 RMK A01 T02550138  RH  050%=      5-min Rain = 0
KWOS 141400Z 21007KT 26/14 A3004 RMK A01 T02550141  RH  051%=      5-min Rain = 0
KWOS 141405Z 21007KT 26/14 A3004 RMK A01 T02580140  RH  050%=      5-min Rain = 0
KWOS 141410Z 22006KT 26/14 A3004 RMK A01 T02620141  RH  049%=      5-min Rain = 0
KWOS 141415Z 23005KT 27/14 A3004 RMK A01 T02650140  RH  048%=      5-min Rain = 0
KWOS 141420Z 23006KT 27/14 A3004 RMK A01 T02660141  RH  048%=      5-min Rain = 0
KWOS 141425Z 22008KT 27/14 A3004 RMK A01 T02670142  RH  048%=      5-min Rain = 0
KWOS 141430Z 22009KT 27/14 A3004 RMK A01 T02680142  RH  048%=      5-min Rain = 0
KWOS 141435Z 22009KT 27/14 A3004 RMK A01 T02700142  RH  047%=      5-min Rain = 0
KWOS 141440Z 21008KT 27/14 A3004 RMK A01 T02710142  RH  047%=      5-min Rain = 0
KWOS 141445Z 21009KT 27/14 A3004 RMK A01 T02710142  RH  047%=      5-min Rain = 0
KWOS 141450Z 21009G14KT 27/14 A3004 RMK A01 T02710144  RH  048%=      5-min Rain = 0
KWOS 141455Z 22010KT 27/14 A3004 RMK A01 T02730142  RH  047%=      5-min Rain = 0
KWOS 141500Z 22011G16KT 28/14 A3004 RMK A01 T02750142  RH  046%=      5-min Rain = 0
KWOS 141505Z 23009KT 28/14 A3004 RMK A01 T02760142  RH  046%=      5-min Rain = 0
KWOS 141510Z 23011KT 28/14 A3004 RMK A01 T02770140  RH  045%=      5-min Rain = 0
KWOS 141515Z 24011KT 28/14 A3004 RMK A01 T02790140  RH  044%=      5-min Rain = 0
KWOS 141520Z 24010KT 28/14 A3004 RMK A01 T02800141  RH  044%=      5-min Rain = 0
KWOS 141525Z 24010G15KT 28/14 A3003 RMK A01 T02820140  RH  044%=      5-min Rain = 0
KWOS 141530Z 28010KT 29/14 A3003 RMK A01 T02850141  RH  043%=      5-min Rain = 0
KWOS 141535Z 29010KT 29/15 A3003 RMK A01 T02850147  RH  045%=      5-min Rain = 0
KWOS 141540Z 29011KT 28/15 A3004 RMK A01 T02840147  RH  045%=      5-min Rain = 0
KWOS 141545Z 29009KT 29/15 A3003 RMK A01 T02880149  RH  045%=      5-min Rain = 0
KWOS 141550Z 29010KT 29/15 A3003 RMK A01 T02920146  RH  043%=      5-min Rain = 0
KWOS 141555Z 32007G12KT 30/15 A3004 RMK A01 T02950147  RH  043%=      5-min Rain = 0
KWOS 141600Z 11005KT 30/15 A3004 RMK A01 T02990151  RH  043%=      5-min Rain = 0
KWOS 141605Z 11008KT 29/15 A3004 RMK A01 T02940148  RH  043%=      5-min Rain = 0
KWOS 141610Z 05005KT 29/15 A3004 RMK A01 T02940145  RH  042%=      5-min Rain = 0
KWOS 141615Z 34006KT 30/15 A3003 RMK A01 T03000145  RH  041%=      5-min Rain = 0
KWOS 141620Z 01005KT 31/15 A3004 RMK A01 T03070147  RH  040%=      5-min Rain = 0
KWOS 141625Z 10007KT 30/15 A3004 RMK A01 T03040147  RH  040%=      5-min Rain = 0
KWOS 141630Z 03005KT 30/14 A3004 RMK A01 T03030143  RH  039%=      5-min Rain = 0
KWOS 141635Z 01005KT 31/15 A3003 RMK A01 T03080152  RH  041%=      5-min Rain = 0
KWOS 141640Z 08006KT 31/15 A3004 RMK A01 T03070150  RH  040%=      5-min Rain = 0
KWOS 141645Z 11005KT 31/16 A3004 RMK A01 T03070155  RH  042%=      5-min Rain = 0
KWOS 141650Z 12006KT 31/15 A3004 RMK A01 T03050153  RH  042%=      5-min Rain = 0
KWOS 141655Z 14007KT 31/15 A3004 RMK A01 T03060149  RH  040%=      5-min Rain = 0
KWOS 141700Z 13006KT 31/15 A3005 RMK A01 T03090146  RH  039%=      5-min Rain = 0
KWOS 141705Z 13005KT 31/15 A3004 RMK A01 T03090145  RH  038%=      5-min Rain = 0
KWOS 141710Z 12005KT 31/15 A3004 RMK A01 T03120145  RH  038%=      5-min Rain = 0
KWOS 141715Z 11005KT 31/15 A3004 RMK A01 T03140147  RH  038%=      5-min Rain = 0
KWOS 141720Z 10004KT 32/14 A3004 RMK A01 T03170144  RH  037%=      5-min Rain = 0
KWOS 141725Z 12003KT 32/14 A3004 RMK A01 T03220141  RH  035%=      5-min Rain = 0
KWOS 141730Z 11002KT 33/14 A3004 RMK A01 T03310141  RH  033%=      5-min Rain = 0
KWOS 141735Z 14003KT 34/14 A3003 RMK A01 T03360139  RH  032%=      5-min Rain = 0
KWOS 141740Z 11002KT 34/14 A3003 RMK A01 T03360140  RH  032%=      5-min Rain = 0
KWOS 141745Z 09003KT 34/14 A3003 RMK A01 T03350138  RH  032%=      5-min Rain = 0
KWOS 141750Z 09003KT 34/14 A3003 RMK A01 T03360135  RH  031%=      5-min Rain = 0
KWOS 141755Z 09003KT 34/14 A3002 RMK A01 T03360141  RH  032%=      5-min Rain = 0
KWOS 141800Z 14004KT 34/14 A3002 RMK A01 T03370139  RH  032%=      5-min Rain = 0
KWOS 141805Z 15005KT 34/14 A3003 RMK A01 T03390138  RH  031%=      5-min Rain = 0
KWOS 141810Z 16006KT 34/14 A3002 RMK A01 T03410140  RH  031%=      5-min Rain = 0
KWOS 141815Z 14003KT 34/14 A3002 RMK A01 T03420136  RH  030%=      5-min Rain = 0
KWOS 141820Z 15003KT 35/13 A3002 RMK A01 T03450133  RH  029%=      5-min Rain = 0
KWOS 141825Z 15004KT 35/13 A3002 RMK A01 T03510134  RH  028%=      5-min Rain = 0
KWOS 141830Z 16006KT 35/14 A3002 RMK A01 T03530136  RH  028%=      5-min Rain = 0
KWOS 141835Z 13005KT 35/13 A3002 RMK A01 T03540132  RH  027%=      5-min Rain = 0
KWOS 141840Z 15004KT 36/13 A3001 RMK A01 T03590130  RH  026%=      5-min Rain = 0
KWOS 141845Z 15004KT 37/13 A3001 RMK A01 T03650126  RH  025%=      5-min Rain = 0
KWOS 141850Z 15003KT 37/12 A3001 RMK A01 T03650124  RH  024%=      5-min Rain = 0
KWOS 141855Z 18002KT 37/12 A3001 RMK A01 T03690123  RH  024%=      5-min Rain = 0
KWOS 141900Z 18003KT 37/12 A3001 RMK A01 T03730118  RH  023%=      5-min Rain = 0
KWOS 141905Z 17005KT 37/11 A3001 RMK A01 T03730113  RH  022%=      5-min Rain = 0
KWOS 141910Z 19007G12KT 37/11 A3001 RMK A01 T03740113  RH  022%=      5-min Rain = 0
KWOS 141915Z 21007KT 37/10 A3001 RMK A01 T03740095  RH  019%=      5-min Rain = 0
KWOS 141920Z 20007KT 38/09 A30 RMK A01 T03770094  RH  019%=      5-min Rain = 0
KWOS 141925Z 20008KT 38/09 A30 RMK A01 T03780087  RH  018%=      5-min Rain = 0
KWOS 141930Z 25008KT 38/09 A30 RMK A01 T03800086  RH  017%=      5-min Rain = 0
KWOS 141935Z 24007KT 38/08 A30 RMK A01 T03830084  RH  017%=      5-min Rain = 0
KWOS 141940Z 22008G13KT 39/10 A30 RMK A01 T03850096  RH  018%=      5-min Rain = 0
KWOS 141945Z 20004KT 39/10 A30 RMK A01 T03850095  RH  018%=      5-min Rain = 0
KWOS 141950Z 20006KT 39/10 A30 RMK A01 T03870095  RH  018%=      5-min Rain = 0
KWOS 141955Z 22006KT 39/08 A2999 RMK A01 T03920077  RH  015%=      5-min Rain = 0
KWOS 142000Z 20008KT 40/08 A2999 RMK A01 T03950081  RH  015%=      5-min Rain = 0
KWOS 142005Z 20007KT 40/07 A2999 RMK A01 T03950072  RH  015%=      5-min Rain = 0
KWOS 142010Z 20008KT 39/08 A2998 RMK A01 T03900077  RH  015%=      5-min Rain = 0
KWOS 142015Z 19007KT 39/06 A2998 RMK A01 T03890064  RH  014%=      5-min Rain = 0
KWOS 142020Z 20007KT 39/08 A2998 RMK A01 T03920077  RH  015%=      5-min Rain = 0
KWOS 142025Z 22008KT 40/07 A2997 RMK A01 T03970068  RH  014%=      5-min Rain = 0
KWOS 142030Z 20007KT 40/07 A2997 RMK A01 T03950069  RH  014%=      5-min Rain = 0
KWOS 142035Z 22012G17KT 39/08 A2997 RMK A01 T03920078  RH  015%=      5-min Rain = 0
KWOS 142040Z 21010KT 39/08 A2997 RMK A01 T03880080  RH  016%=      5-min Rain = 0
KWOS 142045Z 22013G18KT 39/08 A2996 RMK A01 T03880078  RH  016%=      5-min Rain = 0
KWOS 142050Z 24013KT 39/08 A2996 RMK A01 T03930084  RH  016%=      5-min Rain = 0
KWOS 142055Z 23013G19KT 39/09 A2996 RMK A01 T03920085  RH  016%=      5-min Rain = 0
KWOS 142100Z 22013G19KT 40/09 A2996 RMK A01 T03960085  RH  016%=      5-min Rain = 0
KWOS 142105Z 22014G19KT 40/08 A2996 RMK A01 T03950083  RH  016%=      5-min Rain = 0
KWOS 142110Z 22013KT 40/08 A2995 RMK A01 T03970084  RH  016%=      5-min Rain = 0
KWOS 142115Z 22013KT 40/08 A2995 RMK A01 T03980080  RH  015%=      5-min Rain = 0
KWOS 142120Z 21012G18KT 40/08 A2995 RMK A01 T03960080  RH  015%=      5-min Rain = 0
KWOS 142125Z 22009G16KT 40/08 A2995 RMK A01 T03950078  RH  015%=      5-min Rain = 0
KWOS 142130Z 24011G19KT 40/08 A2995 RMK A01 T03980081  RH  015%=      5-min Rain = 0
KWOS 142135Z 24009G15KT 40/08 A2995 RMK A01 T03960080  RH  015%=      5-min Rain = 0
KWOS 142140Z 26011G17KT 40/08 A2995 RMK A01 T03980079  RH  015%=      5-min Rain = 0
KWOS 142145Z 24015G20KT 40/08 A2994 RMK A01 T03980081  RH  015%=      5-min Rain = 0
KWOS 142150Z 23012G17KT 40/08 A2994 RMK A01 T03950080  RH  015%=      5-min Rain = 0
KWOS 142155Z 23012G17KT 40/08 A2994 RMK A01 T03980083  RH  016%=      5-min Rain = 0
KWOS 142200Z 24013KT 40/08 A2994 RMK A01 T03960080  RH  015%=      5-min Rain = 0
KWOS 142205Z 25014G19KT 39/08 A2994 RMK A01 T03940080  RH  015%=      5-min Rain = 0
KWOS 142210Z 23013KT 39/08 A2994 RMK A01 T03920080  RH  016%=      5-min Rain = 0
KWOS 142215Z 24013G19KT 40/08 A2994 RMK A01 T03950080  RH  015%=      5-min Rain = 0
KWOS 142220Z 23011KT 39/08 A2994 RMK A01 T03930080  RH  015%=      5-min Rain = 0
KWOS 142225Z 23011G16KT 39/08 A2994 RMK A01 T03920078  RH  015%=      5-min Rain = 0
KWOS 142230Z 24010KT 39/08 A2994 RMK A01 T03940078  RH  015%=      5-min Rain = 0
KWOS 142235Z 22011G16KT 40/08 A2994 RMK A01 T03950079  RH  015%=      5-min Rain = 0
KWOS 142240Z 23011G16KT 39/08 A2994 RMK A01 T03920076  RH  015%=      5-min Rain = 0
KWOS 142245Z 23011KT 39/08 A2994 RMK A01 T03890076  RH  015%=      5-min Rain = 0
KWOS 142250Z 24011KT 39/08 A2994 RMK A01 T03910075  RH  015%=      5-min Rain = 0
KWOS 142255Z 25011KT 39/07 A2994 RMK A01 T03900074  RH  015%=      5-min Rain = 0
KWOS 142300Z 24010KT 39/07 A2994 RMK A01 T03910074  RH  015%=      5-min Rain = 0
KWOS 142305Z 25011KT 39/07 A2994 RMK A01 T03910074  RH  015%=      5-min Rain = 0
KWOS 142310Z 23010KT 39/08 A2994 RMK A01 T03920075  RH  015%=      5-min Rain = 0
KWOS 142315Z 23009G14KT 39/07 A2994 RMK A01 T03880074  RH  015%=      5-min Rain = 0
KWOS 142320Z 21010KT 39/08 A2994 RMK A01 T03900076  RH  015%=      5-min Rain = 0
KWOS 142325Z 21010KT 39/08 A2994 RMK A01 T03880075  RH  015%=      5-min Rain = 0
KWOS 142330Z 21011KT 39/07 A2994 RMK A01 T03850074  RH  015%=      5-min Rain = 0
KWOS 142335Z 21011KT 38/07 A2994 RMK A01 T03840073  RH  015%=      5-min Rain = 0
KWOS 142340Z 21010KT 38/07 A2994 RMK A01 T03840071  RH  015%=      5-min Rain = 0
KWOS 142345Z 21010KT 38/07 A2994 RMK A01 T03820074  RH  016%=      5-min Rain = 0
KWOS 142350Z 21009KT 38/07 A2994 RMK A01 T03830072  RH  015%=      5-min Rain = 0
KWOS 142355Z 21009KT 38/08 A2994 RMK A01 T03830076  RH  016%=      5-min Rain = 0
KWOS 150000Z 20009KT 38/08 A2994 RMK A01 T03780083  RH  017%=      5-min Rain = 0
KWOS 150005Z 19009KT 38/08 A2995 RMK A01 T03770077  RH  017%=      5-min Rain = 0
KWOS 150010Z 19008KT 38/08 A2995 RMK A01 T03780075  RH  016%=      5-min Rain = 0
KWOS 150015Z 19007KT 38/08 A2995 RMK A01 T03770079  RH  017%=      5-min Rain = 0
KWOS 150020Z 18006KT 38/08 A2995 RMK A01 T03780079  RH  017%=      5-min Rain = 0
KWOS 150025Z 19007KT 38/08 A2995 RMK A01 T03770082  RH  017%=      5-min Rain = 0
KWOS 150030Z 19006KT 38/08 A2995 RMK A01 T03760084  RH  018%=      5-min Rain = 0
KWOS 150035Z 19006KT 37/08 A2995 RMK A01 T03730081  RH  017%=      5-min Rain = 0
KWOS 150040Z 18005KT 37/08 A2996 RMK A01 T03700081  RH  018%=      5-min Rain = 0
KWOS 150045Z 17004KT 37/08 A2996 RMK A01 T03700081  RH  018%=      5-min Rain = 0
KWOS 150050Z 14004KT 37/08 A2997 RMK A01 T03700080  RH  018%=      5-min Rain = 0
KWOS 150055Z 07012G19KT 36/10 A2998 RMK A01 T03610096  RH  021%=      5-min Rain = 0
KWOS 150100Z 07015G22KT 34/10 A2998 RMK A01 T03440104  RH  024%=      5-min Rain = 0
KWOS 150105Z 08020G26KT 34/10 A2998 RMK A01 T03410103  RH  024%=      5-min Rain = 0
KWOS 150110Z 07019G25KT 34/10 A2999 RMK A01 T03370101  RH  024%=      5-min Rain = 0
KWOS 150115Z 07021G27KT 33/11 A2999 RMK A01 T03300105  RH  026%=      5-min Rain = 0
KWOS 150120Z 08019G26KT 33/11 A2999 RMK A01 T03270106  RH  027%=      5-min Rain = 0
KWOS 150125Z 07020G27KT 33/11 A30 RMK A01 T03250108  RH  027%=      5-min Rain = 0
KWOS 150130Z 07019G28KT 32/11 A30 RMK A01 T03210109  RH  028%=      5-min Rain = 0
KWOS 150135Z 07021G28KT 32/11 A30 RMK A01 T03190109  RH  029%=      5-min Rain = 0
KWOS 150140Z 07021G30KT 32/11 A30 RMK A01 T03170108  RH  029%=      5-min Rain = 0
KWOS 150145Z 07017G23KT 32/11 A30 RMK A01 T03150108  RH  029%=      5-min Rain = 0
KWOS 150150Z 07017G23KT 32/11 A3001 RMK A01 T03150108  RH  029%=      5-min Rain = 0
KWOS 150155Z 07019G24KT 31/11 A3001 RMK A01 T03140108  RH  029%=      5-min Rain = 0
KWOS 150200Z 07021G27KT 31/11 A3001 RMK A01 T03140107  RH  029%=      5-min Rain = 0
KWOS 150205Z 07021G31KT 31/10 A3001 RMK A01 T03140104  RH  028%=      5-min Rain = 0
KWOS 150210Z 07018G25KT 31/10 A3001 RMK A01 T03140104  RH  028%=      5-min Rain = 0
KWOS 150215Z 07017G25KT 31/10 A3002 RMK A01 T03130102  RH  028%=      5-min Rain = 0
KWOS 150220Z 06016G22KT 31/10 A3003 RMK A01 T03130101  RH  028%=      5-min Rain = 0
KWOS 150225Z 04014G20KT 31/10 A3004 RMK A01 T03130101  RH  028%=      5-min Rain = 0
KWOS 150230Z 01013KT 31/10 A3005 RMK A01 T03110102  RH  028%=      5-min Rain = 0
KWOS 150235Z 01014KT 31/11 A3006 RMK A01 T03080105  RH  030%=      5-min Rain = 0
KWOS 150240Z 01017G22KT 30/11 A3006 RMK A01 T03020106  RH  031%=      5-min Rain = 0
KWOS 150245Z 02017G23KT 30/11 A3006 RMK A01 T03020106  RH  031%=      5-min Rain = 0
KWOS 150250Z 03016G21KT 30/11 A3006 RMK A01 T03010107  RH  031%=      5-min Rain = 0
KWOS 150255Z 03016G21KT 30/11 A3007 RMK A01 T03000107  RH  031%=      5-min Rain = 0
KWOS 150300Z 03015G21KT 30/11 A3007 RMK A01 T02990108  RH  032%=      5-min Rain = 0
KWOS 150305Z 04017G24KT 30/11 A3008 RMK A01 T02980108  RH  032%=      5-min Rain = 0
KWOS 150310Z 04017G26KT 30/11 A3008 RMK A01 T02980108  RH  032%=      5-min Rain = 0
KWOS 150315Z 04017G22KT 30/11 A3007 RMK A01 T02970108  RH  032%=      5-min Rain = 0
KWOS 150320Z 04018G25KT 30/11 A3007 RMK A01 T02970107  RH  032%=      5-min Rain = 0
KWOS 150325Z 05017G23KT 30/11 A3007 RMK A01 T02980105  RH  031%=      5-min Rain = 0
KWOS 150330Z 04015KT 30/10 A3007 RMK A01 T02990104  RH  031%=      5-min Rain = 0
KWOS 150335Z 04010KT 30/11 A3008 RMK A01 T02980106  RH  032%=      5-min Rain = 0
KWOS 150340Z 05014G19KT 30/10 A3008 RMK A01 T02990104  RH  031%=      5-min Rain = 0
KWOS 150345Z 04009G14KT 30/10 A3008 RMK A01 T03000104  RH  031%=      5-min Rain = 0
KWOS 150350Z 04006KT 30/11 A3008 RMK A01 T02950110  RH  033%=      5-min Rain = 0
KWOS 150355Z 04006KT 29/11 A3008 RMK A01 T02930109  RH  033%=      5-min Rain = 0
KWOS 150400Z 04006KT 29/11 A3008 RMK A01 T02920109  RH  033%=      5-min Rain = 0
KWOS 150405Z 04005KT 29/11 A3008 RMK A01 T02910109  RH  033%=      5-min Rain = 0
KWOS 150410Z 05005KT 29/11 A3007 RMK A01 T02890109  RH  034%=      5-min Rain = 0
KWOS 150415Z 04005KT 29/11 A3007 RMK A01 T02860109  RH  034%=      5-min Rain = 0
KWOS 150420Z 03006KT 28/11 A3006 RMK A01 T02820112  RH  036%=      5-min Rain = 0
KWOS 150425Z 03006KT 28/11 A3006 RMK A01 T02780114  RH  037%=      5-min Rain = 0
KWOS 150430Z 03007KT 28/12 A3006 RMK A01 T02760116  RH  038%=      5-min Rain = 0
KWOS 150435Z 04006KT 27/12 A3006 RMK A01 T02740115  RH  039%=      5-min Rain = 0
KWOS 150440Z 05005KT 27/11 A3005 RMK A01 T02730114  RH  038%=      5-min Rain = 0
KWOS 150445Z 05005KT 28/11 A3005 RMK A01 T02750112  RH  037%=      5-min Rain = 0
KWOS 150450Z 05004KT 28/11 A3005 RMK A01 T02770111  RH  037%=      5-min Rain = 0
KWOS 150455Z 04004KT 28/11 A3005 RMK A01 T02760112  RH  037%=      5-min Rain = 0

Page generated in 0.0144 seconds.